sensor_id;sensor_type;location;lat;lon;timestamp;P1;durP1;ratioP1;P2;durP2;ratioP2
18647;SDS011;9453;50.294;18.644;2023-05-07T04:02:23;8.17;;;4.03;;
18647;SDS011;9453;50.294;18.644;2023-05-07T04:04:50;6.40;;;3.77;;
18647;SDS011;9453;50.294;18.644;2023-05-07T04:07:19;6.03;;;3.70;;
18647;SDS011;9453;50.294;18.644;2023-05-07T04:09:46;7.50;;;3.83;;
18647;SDS011;9453;50.294;18.644;2023-05-07T04:12:13;10.40;;;3.20;;
18647;SDS011;9453;50.294;18.644;2023-05-07T04:14:40;7.90;;;3.20;;
18647;SDS011;9453;50.294;18.644;2023-05-07T04:17:07;8.90;;;4.07;;
18647;SDS011;9453;50.294;18.644;2023-05-07T04:19:36;6.47;;;2.60;;
18647;SDS011;9453;50.294;18.644;2023-05-07T04:22:03;4.10;;;2.50;;
18647;SDS011;9453;50.294;18.644;2023-05-07T04:24:31;7.90;;;2.83;;
18647;SDS011;9453;50.294;18.644;2023-05-07T04:26:59;5.87;;;3.30;;
18647;SDS011;9453;50.294;18.644;2023-05-07T04:29:26;5.10;;;2.80;;
18647;SDS011;9453;50.294;18.644;2023-05-07T04:31:53;4.60;;;2.77;;
18647;SDS011;9453;50.294;18.644;2023-05-07T04:34:21;4.70;;;2.60;;
18647;SDS011;9453;50.294;18.644;2023-05-07T04:36:50;5.73;;;2.70;;
18647;SDS011;9453;50.294;18.644;2023-05-07T04:39:18;8.20;;;3.37;;
18647;SDS011;9453;50.294;18.644;2023-05-07T04:41:45;5.37;;;2.80;;
18647;SDS011;9453;50.294;18.644;2023-05-07T04:46:43;13.23;;;5.70;;
18647;SDS011;9453;50.294;18.644;2023-05-07T04:49:10;12.77;;;5.33;;
18647;SDS011;9453;50.294;18.644;2023-05-07T04:51:37;11.47;;;4.53;;
18647;SDS011;9453;50.294;18.644;2023-05-07T04:54:09;15.50;;;5.10;;
18647;SDS011;9453;50.294;18.644;2023-05-07T04:56:36;15.00;;;6.27;;
18647;SDS011;9453;50.294;18.644;2023-05-07T04:59:03;15.43;;;6.70;;
18647;SDS011;9453;50.294;18.644;2023-05-07T05:01:30;10.50;;;5.87;;
18647;SDS011;9453;50.294;18.644;2023-05-07T05:03:57;16.37;;;5.27;;
18647;SDS011;9453;50.294;18.644;2023-05-07T05:06:25;13.23;;;5.17;;
18647;SDS011;9453;50.294;18.644;2023-05-07T05:08:52;14.43;;;5.43;;
18647;SDS011;9453;50.294;18.644;2023-05-07T05:11:20;11.37;;;4.17;;
18647;SDS011;9453;50.294;18.644;2023-05-07T05:13:47;9.97;;;4.73;;
18647;SDS011;9453;50.294;18.644;2023-05-07T05:16:14;11.30;;;4.73;;
18647;SDS011;9453;50.294;18.644;2023-05-07T05:18:43;5.77;;;2.90;;
18647;SDS011;9453;50.294;18.644;2023-05-07T05:21:10;10.20;;;4.20;;
18647;SDS011;9453;50.294;18.644;2023-05-07T05:23:37;8.60;;;4.23;;
18647;SDS011;9453;50.294;18.644;2023-05-07T05:26:04;9.33;;;5.07;;
18647;SDS011;9453;50.294;18.644;2023-05-07T05:31:01;5.10;;;2.90;;
18647;SDS011;9453;50.294;18.644;2023-05-07T05:33:28;7.00;;;3.57;;
18647;SDS011;9453;50.294;18.644;2023-05-07T05:35:55;5.63;;;2.90;;
18647;SDS011;9453;50.294;18.644;2023-05-07T05:38:22;5.97;;;2.93;;
18647;SDS011;9453;50.294;18.644;2023-05-07T05:40:49;4.93;;;2.50;;
18647;SDS011;9453;50.294;18.644;2023-05-07T05:43:16;5.03;;;3.10;;
18647;SDS011;9453;50.294;18.644;2023-05-07T05:45:44;9.40;;;3.97;;
18647;SDS011;9453;50.294;18.644;2023-05-07T05:48:11;6.90;;;3.93;;
18647;SDS011;9453;50.294;18.644;2023-05-07T05:50:38;8.40;;;5.23;;
18647;SDS011;9453;50.294;18.644;2023-05-07T05:53:05;7.37;;;4.00;;
18647;SDS011;9453;50.294;18.644;2023-05-07T05:55:32;8.67;;;4.50;;
18647;SDS011;9453;50.294;18.644;2023-05-07T05:57:59;8.27;;;4.53;;
18647;SDS011;9453;50.294;18.644;2023-05-07T06:00:26;10.20;;;5.60;;
18647;SDS011;9453;50.294;18.644;2023-05-07T06:02:55;11.13;;;5.30;;
18647;SDS011;9453;50.294;18.644;2023-05-07T06:05:22;12.03;;;6.93;;
18647;SDS011;9453;50.294;18.644;2023-05-07T06:07:49;11.43;;;7.07;;
18647;SDS011;9453;50.294;18.644;2023-05-07T06:10:16;10.73;;;6.63;;
18647;SDS011;9453;50.294;18.644;2023-05-07T06:12:43;15.30;;;7.30;;
18647;SDS011;9453;50.294;18.644;2023-05-07T06:15:10;11.33;;;6.57;;
18647;SDS011;9453;50.294;18.644;2023-05-07T06:17:37;14.73;;;7.30;;
18647;SDS011;9453;50.294;18.644;2023-05-07T06:20:06;13.60;;;7.43;;
18647;SDS011;9453;50.294;18.644;2023-05-07T06:22:34;15.83;;;8.27;;
18647;SDS011;9453;50.294;18.644;2023-05-07T06:25:01;11.83;;;6.77;;
18647;SDS011;9453;50.294;18.644;2023-05-07T06:27:28;12.30;;;6.00;;
18647;SDS011;9453;50.294;18.644;2023-05-07T06:29:55;14.40;;;6.47;;
18647;SDS011;9453;50.294;18.644;2023-05-07T06:32:22;10.33;;;5.90;;
18647;SDS011;9453;50.294;18.644;2023-05-07T06:34:49;9.33;;;6.10;;
18647;SDS011;9453;50.294;18.644;2023-05-07T06:37:17;11.00;;;6.33;;
18647;SDS011;9453;50.294;18.644;2023-05-07T06:39:44;9.53;;;6.20;;
18647;SDS011;9453;50.294;18.644;2023-05-07T06:42:11;9.10;;;5.83;;
18647;SDS011;9453;50.294;18.644;2023-05-07T06:44:38;9.97;;;6.77;;
18647;SDS011;9453;50.294;18.644;2023-05-07T06:47:05;11.40;;;6.43;;
18647;SDS011;9453;50.294;18.644;2023-05-07T06:49:32;10.93;;;6.60;;
18647;SDS011;9453;50.294;18.644;2023-05-07T06:51:59;12.40;;;7.10;;
18647;SDS011;9453;50.294;18.644;2023-05-07T06:54:28;10.57;;;6.03;;
18647;SDS011;9453;50.294;18.644;2023-05-07T06:56:55;8.50;;;5.50;;
18647;SDS011;9453;50.294;18.644;2023-05-07T06:59:23;8.40;;;5.33;;
18647;SDS011;9453;50.294;18.644;2023-05-07T07:01:50;6.10;;;3.83;;
18647;SDS011;9453;50.294;18.644;2023-05-07T07:04:17;10.87;;;3.60;;
18647;SDS011;9453;50.294;18.644;2023-05-07T07:06:44;5.00;;;3.07;;
18647;SDS011;9453;50.294;18.644;2023-05-07T07:09:11;3.77;;;2.43;;
18647;SDS011;9453;50.294;18.644;2023-05-07T07:11:40;5.07;;;3.43;;
18647;SDS011;9453;50.294;18.644;2023-05-07T07:14:07;5.47;;;3.27;;
18647;SDS011;9453;50.294;18.644;2023-05-07T07:16:33;4.00;;;2.80;;
18647;SDS011;9453;50.294;18.644;2023-05-07T07:19:00;4.63;;;2.87;;
18647;SDS011;9453;50.294;18.644;2023-05-07T07:21:27;3.67;;;2.37;;
18647;SDS011;9453;50.294;18.644;2023-05-07T07:23:55;2.57;;;1.87;;
18647;SDS011;9453;50.294;18.644;2023-05-07T07:26:21;2.70;;;1.80;;
18647;SDS011;9453;50.294;18.644;2023-05-07T07:31:21;3.03;;;1.67;;
18647;SDS011;9453;50.294;18.644;2023-05-07T07:33:48;6.40;;;2.43;;
18647;SDS011;9453;50.294;18.644;2023-05-07T07:36:15;5.13;;;1.73;;
18647;SDS011;9453;50.294;18.644;2023-05-07T07:38:42;2.43;;;1.50;;
18647;SDS011;9453;50.294;18.644;2023-05-07T07:41:09;2.47;;;1.37;;
18647;SDS011;9453;50.294;18.644;2023-05-07T07:43:36;1.90;;;1.40;;
18647;SDS011;9453;50.294;18.644;2023-05-07T07:46:03;4.40;;;2.27;;
18647;SDS011;9453;50.294;18.644;2023-05-07T07:48:32;8.77;;;2.17;;
18647;SDS011;9453;50.294;18.644;2023-05-07T07:50:59;4.63;;;1.90;;
18647;SDS011;9453;50.294;18.644;2023-05-07T07:53:27;3.93;;;1.30;;
18647;SDS011;9453;50.294;18.644;2023-05-07T07:55:54;4.03;;;1.43;;
18647;SDS011;9453;50.294;18.644;2023-05-07T07:58:21;1.53;;;1.13;;
18647;SDS011;9453;50.294;18.644;2023-05-07T08:00:49;1.83;;;1.20;;
18647;SDS011;9453;50.294;18.644;2023-05-07T08:03:17;2.63;;;1.30;;
18647;SDS011;9453;50.294;18.644;2023-05-07T08:05:46;2.50;;;1.00;;
18647;SDS011;9453;50.294;18.644;2023-05-07T08:08:14;4.30;;;1.40;;
18647;SDS011;9453;50.294;18.644;2023-05-07T08:10:41;2.53;;;1.33;;
18647;SDS011;9453;50.294;18.644;2023-05-07T08:13:09;3.73;;;1.60;;
18647;SDS011;9453;50.294;18.644;2023-05-07T08:15:36;3.93;;;1.80;;
18647;SDS011;9453;50.294;18.644;2023-05-07T08:18:03;4.40;;;1.97;;
18647;SDS011;9453;50.294;18.644;2023-05-07T08:20:31;3.00;;;2.10;;
18647;SDS011;9453;50.294;18.644;2023-05-07T08:22:59;2.73;;;1.70;;
18647;SDS011;9453;50.294;18.644;2023-05-07T08:25:26;3.03;;;1.37;;
18647;SDS011;9453;50.294;18.644;2023-05-07T08:27:53;2.70;;;1.40;;
18647;SDS011;9453;50.294;18.644;2023-05-07T08:30:21;3.07;;;1.73;;
18647;SDS011;9453;50.294;18.644;2023-05-07T08:32:48;2.77;;;1.67;;
18647;SDS011;9453;50.294;18.644;2023-05-07T08:35:15;2.87;;;1.97;;
18647;SDS011;9453;50.294;18.644;2023-05-07T08:37:42;5.23;;;2.30;;
18647;SDS011;9453;50.294;18.644;2023-05-07T08:40:10;2.87;;;2.10;;
18647;SDS011;9453;50.294;18.644;2023-05-07T08:42:38;5.93;;;2.00;;
18647;SDS011;9453;50.294;18.644;2023-05-07T08:45:08;1.87;;;1.40;;
18647;SDS011;9453;50.294;18.644;2023-05-07T08:47:40;2.20;;;1.50;;
18647;SDS011;9453;50.294;18.644;2023-05-07T08:50:10;2.03;;;1.43;;
18647;SDS011;9453;50.294;18.644;2023-05-07T08:52:37;3.07;;;1.83;;
18647;SDS011;9453;50.294;18.644;2023-05-07T08:55:05;2.43;;;1.40;;
18647;SDS011;9453;50.294;18.644;2023-05-07T08:57:35;2.80;;;1.93;;
18647;SDS011;9453;50.294;18.644;2023-05-07T09:00:02;4.57;;;2.23;;
18647;SDS011;9453;50.294;18.644;2023-05-07T09:02:32;3.33;;;1.70;;
18647;SDS011;9453;50.294;18.644;2023-05-07T09:04:59;3.83;;;1.80;;
18647;SDS011;9453;50.294;18.644;2023-05-07T09:07:26;2.93;;;1.67;;
18647;SDS011;9453;50.294;18.644;2023-05-07T09:09:53;2.93;;;1.97;;
18647;SDS011;9453;50.294;18.644;2023-05-07T09:12:20;3.03;;;2.10;;
18647;SDS011;9453;50.294;18.644;2023-05-07T09:14:49;3.20;;;2.07;;
18647;SDS011;9453;50.294;18.644;2023-05-07T09:17:16;3.53;;;2.17;;
18647;SDS011;9453;50.294;18.644;2023-05-07T09:19:44;3.97;;;1.60;;
18647;SDS011;9453;50.294;18.644;2023-05-07T09:22:11;3.17;;;1.87;;
18647;SDS011;9453;50.294;18.644;2023-05-07T09:24:38;3.03;;;2.10;;
18647;SDS011;9453;50.294;18.644;2023-05-07T09:27:06;2.70;;;2.07;;
18647;SDS011;9453;50.294;18.644;2023-05-07T09:29:38;4.90;;;2.17;;
18647;SDS011;9453;50.294;18.644;2023-05-07T09:32:07;2.90;;;1.73;;
18647;SDS011;9453;50.294;18.644;2023-05-07T09:34:34;5.57;;;2.20;;
18647;SDS011;9453;50.294;18.644;2023-05-07T09:37:02;3.73;;;2.00;;
18647;SDS011;9453;50.294;18.644;2023-05-07T09:39:38;4.30;;;2.00;;
18647;SDS011;9453;50.294;18.644;2023-05-07T09:42:06;3.97;;;2.00;;
18647;SDS011;9453;50.294;18.644;2023-05-07T09:44:33;4.93;;;2.27;;
18647;SDS011;9453;50.294;18.644;2023-05-07T09:47:00;4.73;;;2.40;;
18647;SDS011;9453;50.294;18.644;2023-05-07T09:49:33;4.07;;;2.73;;
18647;SDS011;9453;50.294;18.644;2023-05-07T09:52:02;5.23;;;2.30;;
18647;SDS011;9453;50.294;18.644;2023-05-07T09:54:31;3.40;;;2.40;;
18647;SDS011;9453;50.294;18.644;2023-05-07T09:56:59;3.77;;;2.30;;
18647;SDS011;9453;50.294;18.644;2023-05-07T09:59:28;2.93;;;2.03;;
18647;SDS011;9453;50.294;18.644;2023-05-07T10:01:58;4.67;;;2.50;;
18647;SDS011;9453;50.294;18.644;2023-05-07T10:04:26;5.57;;;2.30;;
18647;SDS011;9453;50.294;18.644;2023-05-07T10:06:55;7.07;;;2.30;;
18647;SDS011;9453;50.294;18.644;2023-05-07T10:09:22;3.07;;;2.20;;
18647;SDS011;9453;50.294;18.644;2023-05-07T10:11:50;3.20;;;2.17;;
18647;SDS011;9453;50.294;18.644;2023-05-07T10:14:19;5.37;;;2.47;;
18647;SDS011;9453;50.294;18.644;2023-05-07T10:16:47;4.80;;;2.90;;
18647;SDS011;9453;50.294;18.644;2023-05-07T10:19:14;4.20;;;2.57;;
18647;SDS011;9453;50.294;18.644;2023-05-07T10:21:44;3.93;;;2.53;;
18647;SDS011;9453;50.294;18.644;2023-05-07T10:24:19;4.03;;;2.83;;
18647;SDS011;9453;50.294;18.644;2023-05-07T10:26:48;8.23;;;2.70;;
18647;SDS011;9453;50.294;18.644;2023-05-07T10:29:18;3.47;;;2.10;;
18647;SDS011;9453;50.294;18.644;2023-05-07T10:31:55;4.33;;;2.33;;
18647;SDS011;9453;50.294;18.644;2023-05-07T10:34:28;5.50;;;2.40;;
18647;SDS011;9453;50.294;18.644;2023-05-07T10:37:03;3.07;;;2.60;;
18647;SDS011;9453;50.294;18.644;2023-05-07T10:39:32;3.60;;;2.37;;
18647;SDS011;9453;50.294;18.644;2023-05-07T10:42:07;4.80;;;2.30;;
18647;SDS011;9453;50.294;18.644;2023-05-07T10:44:35;4.40;;;2.60;;
18647;SDS011;9453;50.294;18.644;2023-05-07T10:47:06;6.20;;;3.27;;
18647;SDS011;9453;50.294;18.644;2023-05-07T10:49:34;4.97;;;3.30;;
18647;SDS011;9453;50.294;18.644;2023-05-07T10:52:13;5.23;;;2.77;;
18647;SDS011;9453;50.294;18.644;2023-05-07T10:54:42;3.13;;;2.10;;
18647;SDS011;9453;50.294;18.644;2023-05-07T11:00:00;6.30;;;1.77;;
18647;SDS011;9453;50.294;18.644;2023-05-07T11:05:30;3.23;;;1.90;;
18647;SDS011;9453;50.294;18.644;2023-05-07T11:07:59;5.10;;;1.90;;
18647;SDS011;9453;50.294;18.644;2023-05-07T11:13:17;6.47;;;2.07;;
18647;SDS011;9453;50.294;18.644;2023-05-07T11:15:46;3.67;;;2.30;;
18647;SDS011;9453;50.294;18.644;2023-05-07T11:18:15;3.23;;;2.27;;
18647;SDS011;9453;50.294;18.644;2023-05-07T11:20:50;3.97;;;2.20;;
18647;SDS011;9453;50.294;18.644;2023-05-07T11:26:44;3.07;;;1.80;;
18647;SDS011;9453;50.294;18.644;2023-05-07T11:29:12;2.87;;;1.87;;
18647;SDS011;9453;50.294;18.644;2023-05-07T11:31:41;4.63;;;2.00;;
18647;SDS011;9453;50.294;18.644;2023-05-07T11:34:08;3.37;;;2.00;;
18647;SDS011;9453;50.294;18.644;2023-05-07T11:36:35;3.67;;;1.53;;
18647;SDS011;9453;50.294;18.644;2023-05-07T11:39:26;3.33;;;2.03;;
18647;SDS011;9453;50.294;18.644;2023-05-07T11:41:56;3.67;;;2.00;;
18647;SDS011;9453;50.294;18.644;2023-05-07T11:44:23;3.07;;;1.70;;
18647;SDS011;9453;50.294;18.644;2023-05-07T11:46:50;3.23;;;2.00;;
18647;SDS011;9453;50.294;18.644;2023-05-07T11:49:17;5.63;;;2.17;;
18647;SDS011;9453;50.294;18.644;2023-05-07T11:51:45;4.80;;;2.20;;
18647;SDS011;9453;50.294;18.644;2023-05-07T11:54:15;2.87;;;2.27;;
18647;SDS011;9453;50.294;18.644;2023-05-07T11:56:43;4.07;;;2.47;;
18647;SDS011;9453;50.294;18.644;2023-05-07T11:59:17;6.07;;;2.17;;
18647;SDS011;9453;50.294;18.644;2023-05-07T12:01:45;3.47;;;2.10;;
18647;SDS011;9453;50.294;18.644;2023-05-07T12:04:13;5.10;;;2.20;;
18647;SDS011;9453;50.294;18.644;2023-05-07T12:06:45;3.37;;;2.10;;
18647;SDS011;9453;50.294;18.644;2023-05-07T12:09:12;4.00;;;2.40;;
18647;SDS011;9453;50.294;18.644;2023-05-07T12:11:39;3.43;;;1.97;;
18647;SDS011;9453;50.294;18.644;2023-05-07T12:14:06;3.73;;;2.07;;
18647;SDS011;9453;50.294;18.644;2023-05-07T12:16:35;6.23;;;2.23;;
18647;SDS011;9453;50.294;18.644;2023-05-07T12:19:03;3.00;;;1.97;;
18647;SDS011;9453;50.294;18.644;2023-05-07T12:21:31;3.50;;;2.10;;
18647;SDS011;9453;50.294;18.644;2023-05-07T12:23:59;3.53;;;1.87;;
18647;SDS011;9453;50.294;18.644;2023-05-07T12:26:26;3.50;;;1.80;;
18647;SDS011;9453;50.294;18.644;2023-05-07T12:28:53;3.10;;;1.90;;
18647;SDS011;9453;50.294;18.644;2023-05-07T12:31:20;3.03;;;1.80;;
18647;SDS011;9453;50.294;18.644;2023-05-07T12:33:49;3.53;;;2.40;;
18647;SDS011;9453;50.294;18.644;2023-05-07T12:36:16;3.63;;;2.17;;
18647;SDS011;9453;50.294;18.644;2023-05-07T12:38:43;3.63;;;2.10;;
18647;SDS011;9453;50.294;18.644;2023-05-07T12:41:10;5.13;;;2.43;;
18647;SDS011;9453;50.294;18.644;2023-05-07T12:43:37;4.47;;;2.23;;
18647;SDS011;9453;50.294;18.644;2023-05-07T12:46:04;3.57;;;2.03;;
18647;SDS011;9453;50.294;18.644;2023-05-07T12:48:33;4.50;;;2.40;;
18647;SDS011;9453;50.294;18.644;2023-05-07T12:51:03;3.50;;;2.10;;
18647;SDS011;9453;50.294;18.644;2023-05-07T12:53:33;6.30;;;2.50;;
18647;SDS011;9453;50.294;18.644;2023-05-07T12:56:05;4.50;;;2.20;;
18647;SDS011;9453;50.294;18.644;2023-05-07T12:58:33;3.10;;;1.90;;
18647;SDS011;9453;50.294;18.644;2023-05-07T13:01:03;4.17;;;2.13;;
18647;SDS011;9453;50.294;18.644;2023-05-07T13:03:32;3.33;;;1.90;;
18647;SDS011;9453;50.294;18.644;2023-05-07T13:06:00;6.70;;;2.20;;
18647;SDS011;9453;50.294;18.644;2023-05-07T13:08:31;4.00;;;2.30;;
18647;SDS011;9453;50.294;18.644;2023-05-07T13:10:59;4.20;;;2.20;;
18647;SDS011;9453;50.294;18.644;2023-05-07T13:13:29;5.70;;;2.57;;
18647;SDS011;9453;50.294;18.644;2023-05-07T13:15:56;6.23;;;2.40;;
18647;SDS011;9453;50.294;18.644;2023-05-07T13:18:24;3.67;;;2.13;;
18647;SDS011;9453;50.294;18.644;2023-05-07T13:20:51;4.57;;;2.43;;
18647;SDS011;9453;50.294;18.644;2023-05-07T13:23:20;4.87;;;2.57;;
18647;SDS011;9453;50.294;18.644;2023-05-07T13:25:47;6.17;;;3.00;;
18647;SDS011;9453;50.294;18.644;2023-05-07T13:28:15;4.00;;;2.00;;
18647;SDS011;9453;50.294;18.644;2023-05-07T13:30:43;2.73;;;1.67;;
18647;SDS011;9453;50.294;18.644;2023-05-07T13:33:10;4.37;;;2.23;;
18647;SDS011;9453;50.294;18.644;2023-05-07T13:35:37;4.57;;;2.00;;
18647;SDS011;9453;50.294;18.644;2023-05-07T13:38:04;4.30;;;2.17;;
18647;SDS011;9453;50.294;18.644;2023-05-07T13:40:33;3.77;;;2.20;;
18647;SDS011;9453;50.294;18.644;2023-05-07T13:43:00;3.90;;;2.30;;
18647;SDS011;9453;50.294;18.644;2023-05-07T13:45:28;3.73;;;2.40;;
18647;SDS011;9453;50.294;18.644;2023-05-07T13:47:55;6.03;;;2.80;;
18647;SDS011;9453;50.294;18.644;2023-05-07T13:50:23;6.30;;;3.40;;
18647;SDS011;9453;50.294;18.644;2023-05-07T13:52:51;3.63;;;2.43;;
18647;SDS011;9453;50.294;18.644;2023-05-07T13:55:19;12.23;;;2.30;;
18647;SDS011;9453;50.294;18.644;2023-05-07T13:57:53;3.60;;;1.83;;
18647;SDS011;9453;50.294;18.644;2023-05-07T14:00:21;4.37;;;2.10;;
18647;SDS011;9453;50.294;18.644;2023-05-07T14:02:49;4.87;;;2.30;;
18647;SDS011;9453;50.294;18.644;2023-05-07T14:05:16;3.57;;;2.00;;
18647;SDS011;9453;50.294;18.644;2023-05-07T14:07:43;2.77;;;1.70;;
18647;SDS011;9453;50.294;18.644;2023-05-07T14:10:10;4.53;;;2.20;;
18647;SDS011;9453;50.294;18.644;2023-05-07T14:12:38;3.50;;;1.90;;
18647;SDS011;9453;50.294;18.644;2023-05-07T14:15:07;6.73;;;2.47;;
18647;SDS011;9453;50.294;18.644;2023-05-07T14:17:35;2.80;;;1.73;;
18647;SDS011;9453;50.294;18.644;2023-05-07T14:20:02;4.23;;;2.00;;
18647;SDS011;9453;50.294;18.644;2023-05-07T14:22:31;4.67;;;2.00;;
18647;SDS011;9453;50.294;18.644;2023-05-07T14:24:58;2.37;;;1.50;;
18647;SDS011;9453;50.294;18.644;2023-05-07T14:27:25;2.83;;;2.00;;
18647;SDS011;9453;50.294;18.644;2023-05-07T14:29:52;3.93;;;2.30;;
18647;SDS011;9453;50.294;18.644;2023-05-07T14:32:21;5.57;;;3.00;;
18647;SDS011;9453;50.294;18.644;2023-05-07T14:34:48;3.60;;;2.00;;
18647;SDS011;9453;50.294;18.644;2023-05-07T14:37:15;4.17;;;2.67;;
18647;SDS011;9453;50.294;18.644;2023-05-07T14:39:44;4.73;;;2.43;;
18647;SDS011;9453;50.294;18.644;2023-05-07T14:42:11;4.43;;;3.00;;
18647;SDS011;9453;50.294;18.644;2023-05-07T14:44:38;4.50;;;2.97;;
18647;SDS011;9453;50.294;18.644;2023-05-07T14:47:06;4.63;;;2.63;;
18647;SDS011;9453;50.294;18.644;2023-05-07T14:49:35;4.47;;;2.77;;
18647;SDS011;9453;50.294;18.644;2023-05-07T14:52:02;6.17;;;3.13;;
18647;SDS011;9453;50.294;18.644;2023-05-07T14:54:33;4.43;;;2.60;;
18647;SDS011;9453;50.294;18.644;2023-05-07T14:57:00;5.13;;;2.80;;
18647;SDS011;9453;50.294;18.644;2023-05-07T14:59:27;4.73;;;2.70;;
18647;SDS011;9453;50.294;18.644;2023-05-07T15:01:54;8.13;;;3.20;;
18647;SDS011;9453;50.294;18.644;2023-05-07T15:04:21;8.23;;;3.03;;
18647;SDS011;9453;50.294;18.644;2023-05-07T15:06:51;4.07;;;2.63;;
18647;SDS011;9453;50.294;18.644;2023-05-07T15:09:18;8.10;;;3.00;;
18647;SDS011;9453;50.294;18.644;2023-05-07T15:11:46;4.30;;;2.57;;
18647;SDS011;9453;50.294;18.644;2023-05-07T15:14:13;5.40;;;2.87;;
18647;SDS011;9453;50.294;18.644;2023-05-07T15:16:40;4.83;;;2.60;;
18647;SDS011;9453;50.294;18.644;2023-05-07T15:19:07;4.93;;;2.73;;
18647;SDS011;9453;50.294;18.644;2023-05-07T15:21:34;8.77;;;2.70;;
18647;SDS011;9453;50.294;18.644;2023-05-07T15:24:03;5.13;;;2.70;;
18647;SDS011;9453;50.294;18.644;2023-05-07T15:26:32;4.30;;;2.40;;
18647;SDS011;9453;50.294;18.644;2023-05-07T15:29:00;7.63;;;2.97;;
18647;SDS011;9453;50.294;18.644;2023-05-07T15:31:30;6.07;;;3.50;;
18647;SDS011;9453;50.294;18.644;2023-05-07T15:33:57;13.43;;;2.90;;
18647;SDS011;9453;50.294;18.644;2023-05-07T15:36:26;5.83;;;3.23;;
18647;SDS011;9453;50.294;18.644;2023-05-07T15:38:53;8.40;;;3.30;;
18647;SDS011;9453;50.294;18.644;2023-05-07T15:41:21;8.17;;;3.40;;
18647;SDS011;9453;50.294;18.644;2023-05-07T15:43:49;5.13;;;3.10;;
18647;SDS011;9453;50.294;18.644;2023-05-07T15:46:18;4.67;;;3.07;;
18647;SDS011;9453;50.294;18.644;2023-05-07T15:48:47;7.40;;;3.70;;
18647;SDS011;9453;50.294;18.644;2023-05-07T15:51:14;5.33;;;2.97;;
18647;SDS011;9453;50.294;18.644;2023-05-07T15:53:41;7.10;;;3.47;;
18647;SDS011;9453;50.294;18.644;2023-05-07T15:56:09;10.83;;;3.90;;
18647;SDS011;9453;50.294;18.644;2023-05-07T15:58:37;6.77;;;3.73;;
18647;SDS011;9453;50.294;18.644;2023-05-07T16:01:04;5.47;;;3.43;;
18647;SDS011;9453;50.294;18.644;2023-05-07T16:03:31;6.67;;;3.43;;
18647;SDS011;9453;50.294;18.644;2023-05-07T16:05:58;7.97;;;3.30;;
18647;SDS011;9453;50.294;18.644;2023-05-07T16:08:25;6.70;;;3.73;;
18647;SDS011;9453;50.294;18.644;2023-05-07T16:10:53;8.30;;;3.83;;
18647;SDS011;9453;50.294;18.644;2023-05-07T16:13:20;6.30;;;3.47;;
18647;SDS011;9453;50.294;18.644;2023-05-07T16:15:51;10.57;;;4.03;;
18647;SDS011;9453;50.294;18.644;2023-05-07T16:18:22;8.73;;;3.90;;
18647;SDS011;9453;50.294;18.644;2023-05-07T16:20:49;7.07;;;3.73;;
18647;SDS011;9453;50.294;18.644;2023-05-07T16:23:16;8.10;;;4.03;;
18647;SDS011;9453;50.294;18.644;2023-05-07T16:25:43;8.63;;;4.33;;
18647;SDS011;9453;50.294;18.644;2023-05-07T16:28:10;8.47;;;3.87;;
18647;SDS011;9453;50.294;18.644;2023-05-07T16:30:37;8.53;;;4.00;;
18647;SDS011;9453;50.294;18.644;2023-05-07T16:33:05;6.93;;;3.63;;
18647;SDS011;9453;50.294;18.644;2023-05-07T16:35:32;13.03;;;4.30;;
18647;SDS011;9453;50.294;18.644;2023-05-07T16:37:59;9.80;;;4.30;;
18647;SDS011;9453;50.294;18.644;2023-05-07T16:40:34;7.80;;;3.90;;
18647;SDS011;9453;50.294;18.644;2023-05-07T16:43:03;8.83;;;4.20;;
18647;SDS011;9453;50.294;18.644;2023-05-07T16:45:31;8.53;;;4.27;;
18647;SDS011;9453;50.294;18.644;2023-05-07T16:48:00;8.47;;;4.53;;
18647;SDS011;9453;50.294;18.644;2023-05-07T16:50:29;7.80;;;4.47;;
18647;SDS011;9453;50.294;18.644;2023-05-07T16:52:56;7.50;;;4.03;;
18647;SDS011;9453;50.294;18.644;2023-05-07T16:55:23;11.97;;;4.87;;
18647;SDS011;9453;50.294;18.644;2023-05-07T16:57:50;8.60;;;4.33;;
18647;SDS011;9453;50.294;18.644;2023-05-07T17:00:17;10.83;;;5.00;;
18647;SDS011;9453;50.294;18.644;2023-05-07T17:02:44;8.90;;;4.30;;
18647;SDS011;9453;50.294;18.644;2023-05-07T17:05:12;9.57;;;4.40;;
18647;SDS011;9453;50.294;18.644;2023-05-07T17:07:40;9.27;;;4.57;;
18647;SDS011;9453;50.294;18.644;2023-05-07T17:10:07;5.90;;;3.37;;
18647;SDS011;9453;50.294;18.644;2023-05-07T17:12:35;7.97;;;4.00;;
18647;SDS011;9453;50.294;18.644;2023-05-07T17:15:02;6.97;;;3.87;;
18647;SDS011;9453;50.294;18.644;2023-05-07T17:17:30;12.40;;;3.93;;
18647;SDS011;9453;50.294;18.644;2023-05-07T17:19:57;9.50;;;4.03;;
18647;SDS011;9453;50.294;18.644;2023-05-07T17:22:25;13.07;;;4.30;;
18647;SDS011;9453;50.294;18.644;2023-05-07T17:24:53;8.23;;;4.10;;
18647;SDS011;9453;50.294;18.644;2023-05-07T17:27:20;7.73;;;4.17;;
18647;SDS011;9453;50.294;18.644;2023-05-07T17:29:47;11.37;;;4.67;;
18647;SDS011;9453;50.294;18.644;2023-05-07T17:32:15;10.07;;;4.70;;
18647;SDS011;9453;50.294;18.644;2023-05-07T17:34:42;9.97;;;5.03;;
18647;SDS011;9453;50.294;18.644;2023-05-07T17:37:09;7.90;;;4.00;;
18647;SDS011;9453;50.294;18.644;2023-05-07T17:39:36;8.40;;;4.77;;
18647;SDS011;9453;50.294;18.644;2023-05-07T17:42:04;9.97;;;4.90;;
18647;SDS011;9453;50.294;18.644;2023-05-07T17:44:31;13.47;;;6.27;;
18647;SDS011;9453;50.294;18.644;2023-05-07T17:46:59;10.50;;;4.87;;
18647;SDS011;9453;50.294;18.644;2023-05-07T17:49:26;12.53;;;4.87;;
18647;SDS011;9453;50.294;18.644;2023-05-07T17:51:53;10.13;;;4.50;;
18647;SDS011;9453;50.294;18.644;2023-05-07T17:54:23;7.70;;;4.30;;
18647;SDS011;9453;50.294;18.644;2023-05-07T17:56:51;8.07;;;4.13;;
18647;SDS011;9453;50.294;18.644;2023-05-07T17:59:20;8.10;;;4.30;;
18647;SDS011;9453;50.294;18.644;2023-05-07T18:01:47;8.17;;;4.27;;
18647;SDS011;9453;50.294;18.644;2023-05-07T18:04:14;11.17;;;4.77;;
18647;SDS011;9453;50.294;18.644;2023-05-07T18:06:41;11.53;;;5.20;;
18647;SDS011;9453;50.294;18.644;2023-05-07T18:09:08;12.23;;;4.83;;
18647;SDS011;9453;50.294;18.644;2023-05-07T18:11:35;12.37;;;5.03;;
18647;SDS011;9453;50.294;18.644;2023-05-07T18:14:03;9.87;;;4.90;;
18647;SDS011;9453;50.294;18.644;2023-05-07T18:16:31;14.10;;;5.13;;
18647;SDS011;9453;50.294;18.644;2023-05-07T18:18:58;20.67;;;5.33;;
18647;SDS011;9453;50.294;18.644;2023-05-07T18:21:25;10.10;;;4.67;;
18647;SDS011;9453;50.294;18.644;2023-05-07T18:23:52;12.40;;;5.27;;
18647;SDS011;9453;50.294;18.644;2023-05-07T18:26:19;12.33;;;4.80;;
18647;SDS011;9453;50.294;18.644;2023-05-07T18:28:46;10.63;;;5.20;;
18647;SDS011;9453;50.294;18.644;2023-05-07T18:31:13;10.53;;;5.03;;
18647;SDS011;9453;50.294;18.644;2023-05-07T18:33:42;9.67;;;4.73;;
18647;SDS011;9453;50.294;18.644;2023-05-07T18:36:09;11.13;;;5.47;;
18647;SDS011;9453;50.294;18.644;2023-05-07T18:38:35;10.03;;;4.87;;
18647;SDS011;9453;50.294;18.644;2023-05-07T18:41:04;10.20;;;4.57;;
18647;SDS011;9453;50.294;18.644;2023-05-07T18:43:32;9.37;;;4.77;;
18647;SDS011;9453;50.294;18.644;2023-05-07T18:45:59;7.67;;;4.23;;
18647;SDS011;9453;50.294;18.644;2023-05-07T18:48:26;10.70;;;4.20;;
18647;SDS011;9453;50.294;18.644;2023-05-07T18:50:54;11.10;;;4.27;;
18647;SDS011;9453;50.294;18.644;2023-05-07T18:53:22;7.80;;;3.60;;
18647;SDS011;9453;50.294;18.644;2023-05-07T18:55:49;8.10;;;3.83;;
18647;SDS011;9453;50.294;18.644;2023-05-07T18:58:16;7.10;;;3.40;;
18647;SDS011;9453;50.294;18.644;2023-05-07T19:00:44;7.90;;;3.83;;
18647;SDS011;9453;50.294;18.644;2023-05-07T19:03:12;7.23;;;3.93;;
18647;SDS011;9453;50.294;18.644;2023-05-07T19:05:41;8.30;;;4.20;;
18647;SDS011;9453;50.294;18.644;2023-05-07T19:08:10;8.13;;;3.70;;
18647;SDS011;9453;50.294;18.644;2023-05-07T19:10:37;8.13;;;3.90;;